sensor_id;sensor_type;location;lat;lon;timestamp;P1;durP1;ratioP1;P2;durP2;ratioP2
13741;SDS011;8461;52.356;10.704;2023-03-01T00:02:21;7.27;;;4.73;;
13741;SDS011;8461;52.356;10.704;2023-03-01T00:04:47;7.37;;;4.90;;
13741;SDS011;8461;52.356;10.704;2023-03-01T00:07:13;6.73;;;4.27;;
13741;SDS011;8461;52.356;10.704;2023-03-01T00:09:39;6.57;;;4.80;;
13741;SDS011;8461;52.356;10.704;2023-03-01T00:12:05;6.97;;;4.73;;
13741;SDS011;8461;52.356;10.704;2023-03-01T00:14:31;7.83;;;5.20;;
13741;SDS011;8461;52.356;10.704;2023-03-01T00:16:57;8.77;;;4.80;;
13741;SDS011;8461;52.356;10.704;2023-03-01T00:19:23;8.83;;;4.77;;
13741;SDS011;8461;52.356;10.704;2023-03-01T00:21:49;9.27;;;5.30;;
13741;SDS011;8461;52.356;10.704;2023-03-01T00:24:15;7.53;;;4.80;;
13741;SDS011;8461;52.356;10.704;2023-03-01T00:26:41;8.60;;;5.13;;
13741;SDS011;8461;52.356;10.704;2023-03-01T00:29:07;8.80;;;4.40;;
13741;SDS011;8461;52.356;10.704;2023-03-01T00:31:33;6.13;;;4.50;;
13741;SDS011;8461;52.356;10.704;2023-03-01T00:34:00;8.77;;;5.80;;
13741;SDS011;8461;52.356;10.704;2023-03-01T00:36:28;7.57;;;5.20;;
13741;SDS011;8461;52.356;10.704;2023-03-01T00:38:54;7.17;;;5.30;;
13741;SDS011;8461;52.356;10.704;2023-03-01T00:41:21;7.47;;;4.47;;
13741;SDS011;8461;52.356;10.704;2023-03-01T00:43:52;7.53;;;4.70;;
13741;SDS011;8461;52.356;10.704;2023-03-01T00:46:19;8.97;;;4.73;;
13741;SDS011;8461;52.356;10.704;2023-03-01T00:48:45;6.33;;;4.03;;
13741;SDS011;8461;52.356;10.704;2023-03-01T00:51:12;6.93;;;4.70;;
13741;SDS011;8461;52.356;10.704;2023-03-01T00:53:38;8.27;;;5.43;;
13741;SDS011;8461;52.356;10.704;2023-03-01T00:56:05;9.20;;;5.27;;
13741;SDS011;8461;52.356;10.704;2023-03-01T00:58:31;6.20;;;5.50;;
13741;SDS011;8461;52.356;10.704;2023-03-01T01:00:57;7.40;;;5.10;;
13741;SDS011;8461;52.356;10.704;2023-03-01T01:03:23;10.77;;;5.73;;
13741;SDS011;8461;52.356;10.704;2023-03-01T01:05:50;3.27;;;2.90;;
13741;SDS011;8461;52.356;10.704;2023-03-01T01:08:16;5.37;;;4.00;;
13741;SDS011;8461;52.356;10.704;2023-03-01T01:10:43;9.87;;;5.10;;
13741;SDS011;8461;52.356;10.704;2023-03-01T01:13:09;7.00;;;4.23;;
13741;SDS011;8461;52.356;10.704;2023-03-01T01:15:35;2.00;;;1.90;;
13741;SDS011;8461;52.356;10.704;2023-03-01T01:18:01;0.87;;;0.87;;
13741;SDS011;8461;52.356;10.704;2023-03-01T01:20:27;5.97;;;4.60;;
13741;SDS011;8461;52.356;10.704;2023-03-01T01:22:53;7.50;;;4.50;;
13741;SDS011;8461;52.356;10.704;2023-03-01T01:25:19;6.97;;;3.73;;
13741;SDS011;8461;52.356;10.704;2023-03-01T01:27:45;6.70;;;3.90;;
13741;SDS011;8461;52.356;10.704;2023-03-01T01:30:11;7.43;;;4.90;;
13741;SDS011;8461;52.356;10.704;2023-03-01T01:32:38;6.03;;;3.73;;
13741;SDS011;8461;52.356;10.704;2023-03-01T01:35:04;5.10;;;4.23;;
13741;SDS011;8461;52.356;10.704;2023-03-01T01:37:30;6.20;;;4.23;;
13741;SDS011;8461;52.356;10.704;2023-03-01T01:40:02;6.67;;;4.20;;
13741;SDS011;8461;52.356;10.704;2023-03-01T01:42:29;6.63;;;3.53;;
13741;SDS011;8461;52.356;10.704;2023-03-01T01:47:40;8.40;;;5.30;;
13741;SDS011;8461;52.356;10.704;2023-03-01T01:50:08;7.43;;;4.00;;
13741;SDS011;8461;52.356;10.704;2023-03-01T01:52:40;6.40;;;5.27;;
13741;SDS011;8461;52.356;10.704;2023-03-01T01:55:10;9.07;;;4.80;;
13741;SDS011;8461;52.356;10.704;2023-03-01T01:57:39;7.83;;;5.20;;
13741;SDS011;8461;52.356;10.704;2023-03-01T02:00:07;8.57;;;4.80;;
13741;SDS011;8461;52.356;10.704;2023-03-01T02:02:33;2.43;;;2.10;;
13741;SDS011;8461;52.356;10.704;2023-03-01T02:05:43;5.73;;;3.97;;
13741;SDS011;8461;52.356;10.704;2023-03-01T02:07:48;8.27;;;5.53;;
13741;SDS011;8461;52.356;10.704;2023-03-01T02:10:15;6.90;;;4.73;;
13741;SDS011;8461;52.356;10.704;2023-03-01T02:12:41;8.43;;;3.87;;
13741;SDS011;8461;52.356;10.704;2023-03-01T02:15:07;8.47;;;4.57;;
13741;SDS011;8461;52.356;10.704;2023-03-01T02:17:33;7.83;;;5.13;;
13741;SDS011;8461;52.356;10.704;2023-03-01T02:20:03;6.30;;;5.70;;
13741;SDS011;8461;52.356;10.704;2023-03-01T02:22:32;7.70;;;4.47;;
13741;SDS011;8461;52.356;10.704;2023-03-01T02:25:02;9.10;;;4.87;;
13741;SDS011;8461;52.356;10.704;2023-03-01T02:30:16;7.13;;;5.90;;
13741;SDS011;8461;52.356;10.704;2023-03-01T02:32:42;7.63;;;4.73;;
13741;SDS011;8461;52.356;10.704;2023-03-01T02:35:09;9.30;;;5.70;;
13741;SDS011;8461;52.356;10.704;2023-03-01T02:37:36;9.23;;;5.60;;
13741;SDS011;8461;52.356;10.704;2023-03-01T02:40:04;10.10;;;5.63;;
13741;SDS011;8461;52.356;10.704;2023-03-01T02:42:32;10.87;;;5.93;;
13741;SDS011;8461;52.356;10.704;2023-03-01T02:45:00;8.43;;;4.70;;
13741;SDS011;8461;52.356;10.704;2023-03-01T02:47:27;7.17;;;5.20;;
13741;SDS011;8461;52.356;10.704;2023-03-01T02:49:52;10.60;;;5.50;;
13741;SDS011;8461;52.356;10.704;2023-03-01T02:54:52;8.27;;;5.47;;
13741;SDS011;8461;52.356;10.704;2023-03-01T02:57:21;7.23;;;4.70;;
13741;SDS011;8461;52.356;10.704;2023-03-01T02:59:48;10.80;;;6.13;;
13741;SDS011;8461;52.356;10.704;2023-03-01T03:02:19;7.37;;;5.63;;
13741;SDS011;8461;52.356;10.704;2023-03-01T03:04:47;9.73;;;5.83;;
13741;SDS011;8461;52.356;10.704;2023-03-01T03:07:13;10.07;;;5.43;;
13741;SDS011;8461;52.356;10.704;2023-03-01T03:09:39;7.37;;;5.13;;
13741;SDS011;8461;52.356;10.704;2023-03-01T03:12:05;8.87;;;5.87;;
13741;SDS011;8461;52.356;10.704;2023-03-01T03:14:31;8.87;;;5.27;;
13741;SDS011;8461;52.356;10.704;2023-03-01T03:16:59;8.10;;;4.40;;
13741;SDS011;8461;52.356;10.704;2023-03-01T03:19:25;8.20;;;5.23;;
13741;SDS011;8461;52.356;10.704;2023-03-01T03:21:51;6.20;;;4.57;;
13741;SDS011;8461;52.356;10.704;2023-03-01T03:24:17;7.23;;;5.00;;
13741;SDS011;8461;52.356;10.704;2023-03-01T03:26:43;8.63;;;5.37;;
13741;SDS011;8461;52.356;10.704;2023-03-01T03:29:09;8.50;;;4.97;;
13741;SDS011;8461;52.356;10.704;2023-03-01T03:31:35;9.07;;;5.27;;
13741;SDS011;8461;52.356;10.704;2023-03-01T03:34:01;14.50;;;5.63;;
13741;SDS011;8461;52.356;10.704;2023-03-01T03:36:27;7.47;;;4.53;;
13741;SDS011;8461;52.356;10.704;2023-03-01T03:38:53;6.67;;;4.57;;
13741;SDS011;8461;52.356;10.704;2023-03-01T03:41:19;6.63;;;4.67;;
13741;SDS011;8461;52.356;10.704;2023-03-01T03:43:45;7.50;;;4.93;;
13741;SDS011;8461;52.356;10.704;2023-03-01T03:46:11;6.43;;;4.60;;
13741;SDS011;8461;52.356;10.704;2023-03-01T03:48:39;8.13;;;4.77;;
13741;SDS011;8461;52.356;10.704;2023-03-01T03:51:05;8.63;;;5.47;;
13741;SDS011;8461;52.356;10.704;2023-03-01T03:53:31;9.70;;;4.87;;
13741;SDS011;8461;52.356;10.704;2023-03-01T03:55:58;6.17;;;4.10;;
13741;SDS011;8461;52.356;10.704;2023-03-01T03:58:24;7.33;;;5.03;;
13741;SDS011;8461;52.356;10.704;2023-03-01T04:00:51;5.00;;;4.10;;
13741;SDS011;8461;52.356;10.704;2023-03-01T04:03:18;6.60;;;3.97;;
13741;SDS011;8461;52.356;10.704;2023-03-01T04:05:45;8.77;;;4.90;;
13741;SDS011;8461;52.356;10.704;2023-03-01T04:08:11;8.07;;;3.87;;
13741;SDS011;8461;52.356;10.704;2023-03-01T04:10:39;6.00;;;4.10;;
13741;SDS011;8461;52.356;10.704;2023-03-01T04:13:05;4.40;;;3.50;;
13741;SDS011;8461;52.356;10.704;2023-03-01T04:15:32;6.00;;;3.57;;
13741;SDS011;8461;52.356;10.704;2023-03-01T04:17:58;8.10;;;3.97;;
13741;SDS011;8461;52.356;10.704;2023-03-01T04:20:26;7.30;;;4.17;;
13741;SDS011;8461;52.356;10.704;2023-03-01T04:25:22;7.10;;;4.20;;
13741;SDS011;8461;52.356;10.704;2023-03-01T04:27:49;6.40;;;4.57;;
13741;SDS011;8461;52.356;10.704;2023-03-01T04:30:15;7.43;;;4.80;;
13741;SDS011;8461;52.356;10.704;2023-03-01T04:32:42;4.00;;;3.17;;
13741;SDS011;8461;52.356;10.704;2023-03-01T04:35:08;8.33;;;4.30;;
13741;SDS011;8461;52.356;10.704;2023-03-01T04:37:34;6.70;;;4.23;;
13741;SDS011;8461;52.356;10.704;2023-03-01T04:40:00;7.43;;;4.53;;
13741;SDS011;8461;52.356;10.704;2023-03-01T04:42:37;5.97;;;3.93;;
13741;SDS011;8461;52.356;10.704;2023-03-01T04:45:03;6.10;;;4.50;;
13741;SDS011;8461;52.356;10.704;2023-03-01T04:47:37;5.93;;;3.40;;
13741;SDS011;8461;52.356;10.704;2023-03-01T04:50:03;8.50;;;4.10;;
13741;SDS011;8461;52.356;10.704;2023-03-01T04:52:29;7.27;;;4.33;;
13741;SDS011;8461;52.356;10.704;2023-03-01T04:54:56;7.83;;;4.37;;
13741;SDS011;8461;52.356;10.704;2023-03-01T04:57:22;9.30;;;4.03;;
13741;SDS011;8461;52.356;10.704;2023-03-01T04:59:48;5.07;;;3.80;;
13741;SDS011;8461;52.356;10.704;2023-03-01T05:02:14;5.67;;;3.90;;
13741;SDS011;8461;52.356;10.704;2023-03-01T05:04:40;5.40;;;3.50;;
13741;SDS011;8461;52.356;10.704;2023-03-01T05:07:06;6.67;;;3.90;;
13741;SDS011;8461;52.356;10.704;2023-03-01T05:09:32;7.37;;;3.73;;
13741;SDS011;8461;52.356;10.704;2023-03-01T05:11:58;5.83;;;4.03;;
13741;SDS011;8461;52.356;10.704;2023-03-01T05:14:24;6.97;;;4.43;;
13741;SDS011;8461;52.356;10.704;2023-03-01T05:16:50;7.30;;;4.13;;
13741;SDS011;8461;52.356;10.704;2023-03-01T05:19:16;6.33;;;4.87;;
13741;SDS011;8461;52.356;10.704;2023-03-01T05:21:47;8.87;;;5.17;;
13741;SDS011;8461;52.356;10.704;2023-03-01T05:24:29;6.17;;;4.17;;
13741;SDS011;8461;52.356;10.704;2023-03-01T05:26:55;6.67;;;4.23;;
13741;SDS011;8461;52.356;10.704;2023-03-01T05:29:22;9.63;;;4.77;;
13741;SDS011;8461;52.356;10.704;2023-03-01T05:31:55;6.83;;;4.30;;
13741;SDS011;8461;52.356;10.704;2023-03-01T05:34:26;9.68;;;5.15;;
13741;SDS011;8461;52.356;10.704;2023-03-01T05:36:53;8.93;;;5.10;;
13741;SDS011;8461;52.356;10.704;2023-03-01T05:39:23;8.35;;;4.88;;
13741;SDS011;8461;52.356;10.704;2023-03-01T05:41:57;7.63;;;4.53;;
13741;SDS011;8461;52.356;10.704;2023-03-01T05:44:23;9.57;;;5.07;;
13741;SDS011;8461;52.356;10.704;2023-03-01T05:46:50;11.10;;;4.93;;
13741;SDS011;8461;52.356;10.704;2023-03-01T05:49:16;7.57;;;4.80;;
13741;SDS011;8461;52.356;10.704;2023-03-01T05:51:42;5.63;;;4.10;;
13741;SDS011;8461;52.356;10.704;2023-03-01T05:54:09;5.07;;;4.00;;
13741;SDS011;8461;52.356;10.704;2023-03-01T05:56:36;5.72;;;3.38;;
13741;SDS011;8461;52.356;10.704;2023-03-01T05:59:02;4.20;;;3.28;;
13741;SDS011;8461;52.356;10.704;2023-03-01T06:01:30;11.07;;;3.90;;
13741;SDS011;8461;52.356;10.704;2023-03-01T06:03:56;7.35;;;4.28;;
13741;SDS011;8461;52.356;10.704;2023-03-01T06:06:22;7.50;;;4.17;;
13741;SDS011;8461;52.356;10.704;2023-03-01T06:08:48;9.88;;;5.55;;
13741;SDS011;8461;52.356;10.704;2023-03-01T06:11:14;10.80;;;6.67;;
13741;SDS011;8461;52.356;10.704;2023-03-01T06:13:41;9.43;;;6.60;;
13741;SDS011;8461;52.356;10.704;2023-03-01T06:16:07;7.85;;;4.13;;
13741;SDS011;8461;52.356;10.704;2023-03-01T06:18:33;7.57;;;4.17;;
13741;SDS011;8461;52.356;10.704;2023-03-01T06:20:59;8.70;;;4.43;;
13741;SDS011;8461;52.356;10.704;2023-03-01T06:23:25;5.30;;;3.63;;
13741;SDS011;8461;52.356;10.704;2023-03-01T06:25:51;7.30;;;4.57;;
13741;SDS011;8461;52.356;10.704;2023-03-01T06:28:18;6.07;;;4.38;;
13741;SDS011;8461;52.356;10.704;2023-03-01T06:30:44;6.80;;;4.60;;
13741;SDS011;8461;52.356;10.704;2023-03-01T06:33:10;9.13;;;4.63;;
13741;SDS011;8461;52.356;10.704;2023-03-01T06:35:36;6.87;;;4.77;;
13741;SDS011;8461;52.356;10.704;2023-03-01T06:38:03;10.27;;;4.93;;
13741;SDS011;8461;52.356;10.704;2023-03-01T06:40:29;6.63;;;4.10;;
13741;SDS011;8461;52.356;10.704;2023-03-01T06:42:56;12.17;;;5.93;;
13741;SDS011;8461;52.356;10.704;2023-03-01T06:45:22;11.47;;;4.90;;
13741;SDS011;8461;52.356;10.704;2023-03-01T06:47:49;7.40;;;4.87;;
13741;SDS011;8461;52.356;10.704;2023-03-01T06:50:15;9.47;;;5.63;;
13741;SDS011;8461;52.356;10.704;2023-03-01T06:52:41;9.73;;;5.30;;
13741;SDS011;8461;52.356;10.704;2023-03-01T06:55:09;12.17;;;5.77;;
13741;SDS011;8461;52.356;10.704;2023-03-01T06:57:35;10.33;;;5.57;;
13741;SDS011;8461;52.356;10.704;2023-03-01T07:00:02;8.30;;;4.93;;
13741;SDS011;8461;52.356;10.704;2023-03-01T07:02:28;11.20;;;5.47;;
13741;SDS011;8461;52.356;10.704;2023-03-01T07:04:54;10.27;;;5.00;;
13741;SDS011;8461;52.356;10.704;2023-03-01T07:07:20;9.77;;;5.73;;
13741;SDS011;8461;52.356;10.704;2023-03-01T07:09:48;10.20;;;5.60;;
13741;SDS011;8461;52.356;10.704;2023-03-01T07:12:14;13.13;;;6.43;;
13741;SDS011;8461;52.356;10.704;2023-03-01T07:14:40;12.27;;;6.70;;
13741;SDS011;8461;52.356;10.704;2023-03-01T07:17:06;9.00;;;5.80;;
13741;SDS011;8461;52.356;10.704;2023-03-01T07:19:32;14.60;;;7.33;;
13741;SDS011;8461;52.356;10.704;2023-03-01T07:21:58;9.17;;;5.73;;
13741;SDS011;8461;52.356;10.704;2023-03-01T07:24:24;10.53;;;6.47;;
13741;SDS011;8461;52.356;10.704;2023-03-01T07:26:50;9.67;;;6.03;;
13741;SDS011;8461;52.356;10.704;2023-03-01T07:29:17;12.17;;;6.63;;
13741;SDS011;8461;52.356;10.704;2023-03-01T07:31:43;7.63;;;6.03;;
13741;SDS011;8461;52.356;10.704;2023-03-01T07:34:09;11.33;;;7.00;;
13741;SDS011;8461;52.356;10.704;2023-03-01T07:36:35;12.07;;;7.20;;
13741;SDS011;8461;52.356;10.704;2023-03-01T07:39:01;9.80;;;6.77;;
13741;SDS011;8461;52.356;10.704;2023-03-01T07:41:28;10.37;;;6.93;;
13741;SDS011;8461;52.356;10.704;2023-03-01T07:43:54;10.80;;;6.63;;
13741;SDS011;8461;52.356;10.704;2023-03-01T07:46:20;11.37;;;7.57;;
13741;SDS011;8461;52.356;10.704;2023-03-01T07:48:46;11.57;;;6.83;;
13741;SDS011;8461;52.356;10.704;2023-03-01T07:51:12;18.43;;;11.80;;
13741;SDS011;8461;52.356;10.704;2023-03-01T07:53:38;12.00;;;8.60;;
13741;SDS011;8461;52.356;10.704;2023-03-01T07:56:04;20.40;;;8.40;;
13741;SDS011;8461;52.356;10.704;2023-03-01T07:58:31;11.00;;;7.13;;
13741;SDS011;8461;52.356;10.704;2023-03-01T08:01:02;9.23;;;6.90;;
13741;SDS011;8461;52.356;10.704;2023-03-01T08:03:28;9.07;;;5.17;;
13741;SDS011;8461;52.356;10.704;2023-03-01T08:05:54;9.37;;;5.80;;
13741;SDS011;8461;52.356;10.704;2023-03-01T08:08:20;8.83;;;5.67;;
13741;SDS011;8461;52.356;10.704;2023-03-01T08:10:46;9.07;;;5.57;;
13741;SDS011;8461;52.356;10.704;2023-03-01T08:13:12;10.43;;;5.63;;
13741;SDS011;8461;52.356;10.704;2023-03-01T08:15:38;8.13;;;5.50;;
13741;SDS011;8461;52.356;10.704;2023-03-01T08:18:04;11.00;;;5.77;;
13741;SDS011;8461;52.356;10.704;2023-03-01T08:20:31;8.03;;;5.00;;
13741;SDS011;8461;52.356;10.704;2023-03-01T08:22:57;9.57;;;5.87;;
13741;SDS011;8461;52.356;10.704;2023-03-01T08:25:23;9.07;;;5.40;;
13741;SDS011;8461;52.356;10.704;2023-03-01T08:27:49;7.40;;;4.80;;
13741;SDS011;8461;52.356;10.704;2023-03-01T08:30:15;7.53;;;4.73;;
13741;SDS011;8461;52.356;10.704;2023-03-01T08:32:41;8.13;;;4.70;;
13741;SDS011;8461;52.356;10.704;2023-03-01T08:35:07;9.90;;;5.17;;
13741;SDS011;8461;52.356;10.704;2023-03-01T08:37:33;7.93;;;5.03;;
13741;SDS011;8461;52.356;10.704;2023-03-01T08:39:59;6.70;;;4.47;;
13741;SDS011;8461;52.356;10.704;2023-03-01T08:42:26;7.60;;;4.77;;
13741;SDS011;8461;52.356;10.704;2023-03-01T08:44:52;7.13;;;4.50;;
13741;SDS011;8461;52.356;10.704;2023-03-01T08:47:18;6.13;;;4.07;;
13741;SDS011;8461;52.356;10.704;2023-03-01T08:49:44;6.70;;;4.40;;
13741;SDS011;8461;52.356;10.704;2023-03-01T08:52:10;6.97;;;4.50;;
13741;SDS011;8461;52.356;10.704;2023-03-01T08:54:36;6.53;;;3.80;;
13741;SDS011;8461;52.356;10.704;2023-03-01T08:57:02;6.33;;;3.87;;
13741;SDS011;8461;52.356;10.704;2023-03-01T08:59:28;6.13;;;3.60;;
13741;SDS011;8461;52.356;10.704;2023-03-01T09:01:55;9.43;;;5.30;;
13741;SDS011;8461;52.356;10.704;2023-03-01T09:04:21;6.77;;;4.23;;
13741;SDS011;8461;52.356;10.704;2023-03-01T09:06:47;8.00;;;4.10;;
13741;SDS011;8461;52.356;10.704;2023-03-01T09:09:15;4.30;;;3.30;;
13741;SDS011;8461;52.356;10.704;2023-03-01T09:11:41;4.83;;;3.10;;
13741;SDS011;8461;52.356;10.704;2023-03-01T09:14:08;8.17;;;4.30;;
13741;SDS011;8461;52.356;10.704;2023-03-01T09:16:34;9.10;;;3.83;;
13741;SDS011;8461;52.356;10.704;2023-03-01T09:19:01;5.30;;;4.07;;
13741;SDS011;8461;52.356;10.704;2023-03-01T09:21:30;7.10;;;3.57;;
13741;SDS011;8461;52.356;10.704;2023-03-01T09:23:56;6.63;;;3.80;;
13741;SDS011;8461;52.356;10.704;2023-03-01T09:26:23;5.17;;;3.47;;
13741;SDS011;8461;52.356;10.704;2023-03-01T09:28:50;5.73;;;3.77;;
13741;SDS011;8461;52.356;10.704;2023-03-01T09:31:17;8.37;;;3.20;;
13741;SDS011;8461;52.356;10.704;2023-03-01T09:33:45;5.87;;;3.57;;
13741;SDS011;8461;52.356;10.704;2023-03-01T09:36:13;6.30;;;3.83;;
13741;SDS011;8461;52.356;10.704;2023-03-01T09:38:39;4.43;;;3.10;;
13741;SDS011;8461;52.356;10.704;2023-03-01T09:43:53;5.17;;;2.90;;
13741;SDS011;8461;52.356;10.704;2023-03-01T09:46:23;5.10;;;3.40;;
13741;SDS011;8461;52.356;10.704;2023-03-01T09:49:01;7.40;;;3.47;;
13741;SDS011;8461;52.356;10.704;2023-03-01T09:51:34;5.00;;;2.97;;
13741;SDS011;8461;52.356;10.704;2023-03-01T09:54:03;6.43;;;3.47;;
13741;SDS011;8461;52.356;10.704;2023-03-01T09:59:20;4.23;;;2.80;;
13741;SDS011;8461;52.356;10.704;2023-03-01T10:07:09;4.53;;;2.80;;
13741;SDS011;8461;52.356;10.704;2023-03-01T10:09:43;4.57;;;2.60;;
13741;SDS011;8461;52.356;10.704;2023-03-01T10:12:15;4.43;;;2.60;;
13741;SDS011;8461;52.356;10.704;2023-03-01T10:17:21;4.13;;;2.77;;
13741;SDS011;8461;52.356;10.704;2023-03-01T10:19:50;6.30;;;2.47;;
13741;SDS011;8461;52.356;10.704;2023-03-01T10:22:17;3.83;;;2.53;;
13741;SDS011;8461;52.356;10.704;2023-03-01T10:24:46;5.57;;;2.63;;
13741;SDS011;8461;52.356;10.704;2023-03-01T10:27:22;6.20;;;3.07;;
13741;SDS011;8461;52.356;10.704;2023-03-01T10:30:02;4.63;;;2.60;;
13741;SDS011;8461;52.356;10.704;2023-03-01T10:32:31;4.17;;;2.43;;
13741;SDS011;8461;52.356;10.704;2023-03-01T10:34:57;4.50;;;2.70;;
13741;SDS011;8461;52.356;10.704;2023-03-01T10:37:24;5.37;;;3.17;;
13741;SDS011;8461;52.356;10.704;2023-03-01T10:39:56;7.23;;;3.70;;
13741;SDS011;8461;52.356;10.704;2023-03-01T10:42:25;7.30;;;4.57;;
13741;SDS011;8461;52.356;10.704;2023-03-01T10:44:51;8.97;;;4.50;;
13741;SDS011;8461;52.356;10.704;2023-03-01T10:47:19;5.03;;;3.30;;
13741;SDS011;8461;52.356;10.704;2023-03-01T10:49:52;3.00;;;1.73;;
13741;SDS011;8461;52.356;10.704;2023-03-01T10:52:20;3.90;;;2.40;;
13741;SDS011;8461;52.356;10.704;2023-03-01T10:54:57;4.93;;;2.60;;
13741;SDS011;8461;52.356;10.704;2023-03-01T10:57:37;3.83;;;3.03;;
13741;SDS011;8461;52.356;10.704;2023-03-01T11:00:20;14.80;;;4.80;;
13741;SDS011;8461;52.356;10.704;2023-03-01T11:02:48;5.83;;;2.57;;
13741;SDS011;8461;52.356;10.704;2023-03-01T11:07:46;4.73;;;1.97;;
13741;SDS011;8461;52.356;10.704;2023-03-01T11:10:16;3.93;;;2.70;;
13741;SDS011;8461;52.356;10.704;2023-03-01T11:12:42;4.03;;;2.50;;
13741;SDS011;8461;52.356;10.704;2023-03-01T11:15:15;3.93;;;2.30;;
13741;SDS011;8461;52.356;10.704;2023-03-01T11:17:45;4.87;;;3.00;;
13741;SDS011;8461;52.356;10.704;2023-03-01T11:22:44;7.77;;;4.37;;
13741;SDS011;8461;52.356;10.704;2023-03-01T11:25:11;4.50;;;2.53;;
13741;SDS011;8461;52.356;10.704;2023-03-01T11:27:43;5.17;;;3.03;;
13741;SDS011;8461;52.356;10.704;2023-03-01T11:30:21;4.20;;;1.90;;
13741;SDS011;8461;52.356;10.704;2023-03-01T11:35:34;3.30;;;2.30;;
13741;SDS011;8461;52.356;10.704;2023-03-01T11:38:24;5.27;;;3.10;;
13741;SDS011;8461;52.356;10.704;2023-03-01T11:40:52;7.57;;;3.90;;
13741;SDS011;8461;52.356;10.704;2023-03-01T11:43:28;4.73;;;2.90;;
13741;SDS011;8461;52.356;10.704;2023-03-01T11:48:48;3.87;;;2.40;;
13741;SDS011;8461;52.356;10.704;2023-03-01T11:51:23;6.00;;;3.17;;
13741;SDS011;8461;52.356;10.704;2023-03-01T11:53:54;5.47;;;3.10;;
13741;SDS011;8461;52.356;10.704;2023-03-01T11:58:53;3.80;;;2.67;;
13741;SDS011;8461;52.356;10.704;2023-03-01T12:01:25;8.37;;;2.60;;
13741;SDS011;8461;52.356;10.704;2023-03-01T12:14:42;4.40;;;2.37;;
13741;SDS011;8461;52.356;10.704;2023-03-01T12:20:02;3.73;;;2.70;;
13741;SDS011;8461;52.356;10.704;2023-03-01T12:22:36;4.60;;;2.57;;
13741;SDS011;8461;52.356;10.704;2023-03-01T12:37:41;2.57;;;2.03;;
13741;SDS011;8461;52.356;10.704;2023-03-01T12:42:46;3.50;;;2.20;;
13741;SDS011;8461;52.356;10.704;2023-03-01T12:48:02;2.90;;;2.23;;
13741;SDS011;8461;52.356;10.704;2023-03-01T12:50:42;2.20;;;1.80;;
13741;SDS011;8461;52.356;10.704;2023-03-01T12:53:29;3.47;;;2.27;;
13741;SDS011;8461;52.356;10.704;2023-03-01T12:55:59;4.03;;;2.63;;
13741;SDS011;8461;52.356;10.704;2023-03-01T12:58:36;3.93;;;2.37;;
13741;SDS011;8461;52.356;10.704;2023-03-01T13:06:16;2.93;;;1.63;;
13741;SDS011;8461;52.356;10.704;2023-03-01T13:08:50;3.20;;;1.87;;
13741;SDS011;8461;52.356;10.704;2023-03-01T13:11:20;5.23;;;2.27;;
13741;SDS011;8461;52.356;10.704;2023-03-01T13:13:46;3.17;;;1.93;;
13741;SDS011;8461;52.356;10.704;2023-03-01T13:21:57;5.60;;;3.00;;
13741;SDS011;8461;52.356;10.704;2023-03-01T13:24:24;2.73;;;2.07;;
13741;SDS011;8461;52.356;10.704;2023-03-01T13:27:08;4.00;;;2.37;;
13741;SDS011;8461;52.356;10.704;2023-03-01T13:29:43;3.43;;;2.07;;
13741;SDS011;8461;52.356;10.704;2023-03-01T13:32:22;3.87;;;2.40;;
13741;SDS011;8461;52.356;10.704;2023-03-01T13:34:50;4.50;;;2.57;;
13741;SDS011;8461;52.356;10.704;2023-03-01T13:37:20;4.37;;;1.87;;
13741;SDS011;8461;52.356;10.704;2023-03-01T13:39:46;3.43;;;2.07;;
13741;SDS011;8461;52.356;10.704;2023-03-01T13:44:57;4.57;;;2.40;;
13741;SDS011;8461;52.356;10.704;2023-03-01T13:47:23;4.50;;;2.33;;
13741;SDS011;8461;52.356;10.704;2023-03-01T13:57:46;2.63;;;1.70;;
13741;SDS011;8461;52.356;10.704;2023-03-01T14:00:26;3.17;;;2.33;;
13741;SDS011;8461;52.356;10.704;2023-03-01T14:03:03;3.50;;;2.17;;
13741;SDS011;8461;52.356;10.704;2023-03-01T14:05:30;2.93;;;2.13;;
13741;SDS011;8461;52.356;10.704;2023-03-01T14:07:56;3.50;;;2.70;;
13741;SDS011;8461;52.356;10.704;2023-03-01T14:10:22;4.03;;;2.50;;
13741;SDS011;8461;52.356;10.704;2023-03-01T14:15:27;2.93;;;2.30;;
13741;SDS011;8461;52.356;10.704;2023-03-01T14:20:22;4.10;;;2.50;;
13741;SDS011;8461;52.356;10.704;2023-03-01T14:22:49;2.93;;;1.70;;
13741;SDS011;8461;52.356;10.704;2023-03-01T14:25:21;3.37;;;2.33;;
13741;SDS011;8461;52.356;10.704;2023-03-01T14:27:51;3.80;;;1.97;;
13741;SDS011;8461;52.356;10.704;2023-03-01T14:30:21;3.73;;;2.57;;
13741;SDS011;8461;52.356;10.704;2023-03-01T14:32:52;3.13;;;1.90;;
13741;SDS011;8461;52.356;10.704;2023-03-01T14:35:20;2.97;;;1.77;;
13741;SDS011;8461;52.356;10.704;2023-03-01T14:37:46;3.43;;;2.33;;
13741;SDS011;8461;52.356;10.704;2023-03-01T14:40:47;4.50;;;2.00;;
13741;SDS011;8461;52.356;10.704;2023-03-01T14:43:10;3.60;;;1.80;;
13741;SDS011;8461;52.356;10.704;2023-03-01T14:45:37;4.33;;;2.40;;
13741;SDS011;8461;52.356;10.704;2023-03-01T14:48:03;2.63;;;1.73;;
13741;SDS011;8461;52.356;10.704;2023-03-01T14:50:39;3.97;;;1.83;;
13741;SDS011;8461;52.356;10.704;2023-03-01T14:53:06;1.73;;;1.50;;
13741;SDS011;8461;52.356;10.704;2023-03-01T14:55:38;5.07;;;2.80;;
13741;SDS011;8461;52.356;10.704;2023-03-01T14:58:11;4.07;;;2.27;;
13741;SDS011;8461;52.356;10.704;2023-03-01T15:00:37;3.83;;;1.97;;
13741;SDS011;8461;52.356;10.704;2023-03-01T15:03:07;3.20;;;2.03;;
13741;SDS011;8461;52.356;10.704;2023-03-01T15:05:38;4.03;;;1.80;;
13741;SDS011;8461;52.356;10.704;2023-03-01T15:08:04;2.97;;;1.80;;
13741;SDS011;8461;52.356;10.704;2023-03-01T15:10:34;6.60;;;2.47;;
13741;SDS011;8461;52.356;10.704;2023-03-01T15:13:13;3.70;;;1.93;;
13741;SDS011;8461;52.356;10.704;2023-03-01T15:15:41;3.70;;;1.90;;
13741;SDS011;8461;52.356;10.704;2023-03-01T15:18:15;3.97;;;2.27;;
13741;SDS011;8461;52.356;10.704;2023-03-01T15:20:42;5.63;;;2.40;;
13741;SDS011;8461;52.356;10.704;2023-03-01T15:23:41;3.00;;;1.90;;
13741;SDS011;8461;52.356;10.704;2023-03-01T15:26:00;2.80;;;1.90;;
13741;SDS011;8461;52.356;10.704;2023-03-01T15:28:31;4.17;;;1.63;;
13741;SDS011;8461;52.356;10.704;2023-03-01T15:31:00;2.73;;;2.17;;
13741;SDS011;8461;52.356;10.704;2023-03-01T15:33:28;4.43;;;2.27;;
13741;SDS011;8461;52.356;10.704;2023-03-01T15:35:55;3.60;;;2.33;;
13741;SDS011;8461;52.356;10.704;2023-03-01T15:40:57;3.60;;;2.40;;
13741;SDS011;8461;52.356;10.704;2023-03-01T15:43:40;3.90;;;2.20;;
13741;SDS011;8461;52.356;10.704;2023-03-01T15:46:17;6.07;;;3.43;;
13741;SDS011;8461;52.356;10.704;2023-03-01T15:48:45;4.63;;;2.77;;
13741;SDS011;8461;52.356;10.704;2023-03-01T15:51:11;10.37;;;5.20;;
13741;SDS011;8461;52.356;10.704;2023-03-01T15:53:39;11.43;;;5.93;;
13741;SDS011;8461;52.356;10.704;2023-03-01T15:56:05;7.23;;;4.73;;
13741;SDS011;8461;52.356;10.704;2023-03-01T15:58:32;3.73;;;2.47;;
13741;SDS011;8461;52.356;10.704;2023-03-01T16:00:58;21.93;;;10.47;;
13741;SDS011;8461;52.356;10.704;2023-03-01T16:03:24;5.20;;;3.23;;
13741;SDS011;8461;52.356;10.704;2023-03-01T16:05:50;10.00;;;5.83;;
13741;SDS011;8461;52.356;10.704;2023-03-01T16:08:17;3.87;;;2.37;;
13741;SDS011;8461;52.356;10.704;2023-03-01T16:10:43;4.97;;;2.70;;
13741;SDS011;8461;52.356;10.704;2023-03-01T16:13:10;5.00;;;2.60;;
13741;SDS011;8461;52.356;10.704;2023-03-01T16:15:37;6.70;;;3.90;;
13741;SDS011;8461;52.356;10.704;2023-03-01T16:18:04;3.03;;;1.90;;
13741;SDS011;8461;52.356;10.704;2023-03-01T16:20:31;4.60;;;2.27;;
13741;SDS011;8461;52.356;10.704;2023-03-01T16:22:58;4.83;;;1.90;;
13741;SDS011;8461;52.356;10.704;2023-03-01T16:25:25;3.50;;;2.50;;
13741;SDS011;8461;52.356;10.704;2023-03-01T16:27:51;3.53;;;2.37;;
13741;SDS011;8461;52.356;10.704;2023-03-01T16:30:18;6.10;;;2.90;;